Time;durP1;ratioP1;P1;durP2;ratioP2;P2;SDS_P1;SDS_P2;PMS_P1;PMS_P2;Temp;Humidity;BMP_temperature;BMP_pressure;BME280_temperature;BME280_humidity;BME280_pressure;Samples;Min_cycle;Max_cycle;Signal;HPM_P1;HPM_P2
2023/10/29 00:00:20;;;;;;;2.53;1.92;;;19.50;56.40;;;;;;5018480;28;20223;-84
2023/10/29 00:02:49;;;;;;;2.10;1.90;;;19.50;56.50;;;;;;5018484;28;20230;-84
2023/10/29 00:05:15;;;;;;;2.35;1.88;;;19.50;56.60;;;;;;5018328;28;20200;-84
2023/10/29 00:07:43;;;;;;;2.08;1.90;;;19.50;56.60;;;;;;5019135;28;20211;-84
2023/10/29 00:10:10;;;;;;;2.15;1.88;;;19.50;56.60;;;;;;5017907;28;20235;-84
2023/10/29 00:12:37;;;;;;;3.53;2.28;;;19.50;56.60;;;;;;5018053;28;20632;-84
2023/10/29 00:15:05;;;;;;;2.47;2.28;;;19.50;56.70;;;;;;5018089;28;20203;-84
2023/10/29 00:17:32;;;;;;;2.10;1.90;;;19.50;56.70;;;;;;5018624;28;20211;-84
2023/10/29 00:20:03;;;;;;;2.47;2.03;;;19.40;56.60;;;;;;5017915;28;20212;-84
2023/10/29 00:22:31;;;;;;;2.15;1.95;;;19.40;56.70;;;;;;5017759;28;20196;-84
2023/10/29 00:24:58;;;;;;;2.53;2.15;;;19.40;56.80;;;;;;5002423;28;20215;-84
2023/10/29 00:27:25;;;;;;;2.92;2.13;;;19.50;56.90;;;;;;5002067;28;20548;-84
2023/10/29 00:29:53;;;;;;;2.15;1.90;;;19.40;56.80;;;;;;5018143;28;20212;-84
2023/10/29 00:32:20;;;;;;;1.83;1.73;;;19.40;56.90;;;;;;5018284;28;20270;-84
2023/10/29 00:34:47;;;;;;;2.15;1.95;;;19.30;57.40;;;;;;5019094;28;20569;-84
2023/10/29 00:37:17;;;;;;;2.33;1.95;;;19.30;56.80;;;;;;5018415;28;20200;-84
2023/10/29 00:39:44;;;;;;;2.35;1.90;;;19.30;56.90;;;;;;5003457;28;20238;-84
2023/10/29 00:42:11;;;;;;;2.30;2.10;;;19.30;56.90;;;;;;5001726;28;20195;-84
2023/10/29 00:44:39;;;;;;;2.10;1.75;;;19.30;56.90;;;;;;5017892;28;20200;-84
2023/10/29 00:47:06;;;;;;;1.83;1.73;;;19.30;56.90;;;;;;5017336;28;20694;-84
2023/10/29 00:49:33;;;;;;;2.00;1.85;;;19.30;56.90;;;;;;5017518;28;20224;-85
2023/10/29 00:52:00;;;;;;;2.90;1.77;;;19.30;56.90;;;;;;5001188;28;20203;-84
2023/10/29 00:54:29;;;;;;;2.08;1.88;;;19.30;56.80;;;;;;5017365;28;20192;-84
2023/10/29 00:56:56;;;;;;;3.22;2.10;;;19.30;56.80;;;;;;5017224;28;20203;-84
2023/10/29 00:59:23;;;;;;;3.00;2.03;;;19.30;56.80;;;;;;5017555;28;20262;-84
2023/10/29 01:01:50;;;;;;;2.47;2.08;;;19.30;56.80;;;;;;5018117;28;20218;-84
2023/10/29 01:04:17;;;;;;;1.90;1.80;;;19.30;56.80;;;;;;5017820;28;20646;-84
2023/10/29 01:06:46;;;;;;;3.22;2.05;;;19.30;56.90;;;;;;5017278;28;20196;-84
2023/10/29 01:09:13;;;;;;;2.00;1.80;;;19.30;56.80;;;;;;5017571;28;20200;-84
2023/10/29 01:11:41;;;;;;;1.80;1.70;;;19.30;56.80;;;;;;5002396;28;20283;-84
2023/10/29 01:14:09;;;;;;;1.80;1.70;;;19.20;56.80;;;;;;5017647;28;20674;-84
2023/10/29 01:16:35;;;;;;;2.20;2.00;;;19.10;56.70;;;;;;5017959;28;20203;-84
2023/10/29 01:19:02;;;;;;;1.70;1.60;;;19.20;56.80;;;;;;5017279;28;20207;-84
2023/10/29 01:21:30;;;;;;;1.80;1.70;;;19.20;56.80;;;;;;5017333;28;20200;-84
2023/10/29 01:23:56;;;;;;;3.08;1.80;;;19.20;56.80;;;;;;5017317;28;20294;-84
2023/10/29 01:26:24;;;;;;;1.70;1.58;;;19.20;56.80;;;;;;5017450;28;20287;-84
2023/10/29 01:28:52;;;;;;;2.33;1.70;;;19.20;56.80;;;;;;5017137;28;20200;-84
2023/10/29 01:31:19;;;;;;;2.00;1.80;;;19.20;56.90;;;;;;5016854;28;20220;-84
2023/10/29 01:33:46;;;;;;;1.80;1.70;;;19.20;56.90;;;;;;5017099;28;20192;-84
2023/10/29 01:36:13;;;;;;;2.58;2.00;;;19.20;56.80;;;;;;5016898;28;20250;-84
2023/10/29 01:38:40;;;;;;;1.77;1.60;;;19.20;56.80;;;;;;5017080;28;20207;-84
2023/10/29 01:41:07;;;;;;;1.73;1.63;;;19.20;56.90;;;;;;5016429;28;20211;-84
2023/10/29 01:43:34;;;;;;;2.03;1.73;;;19.20;56.90;;;;;;5016764;28;20261;-84
2023/10/29 01:46:03;;;;;;;2.20;2.00;;;19.20;57.00;;;;;;5016651;28;20207;-84
2023/10/29 01:48:31;;;;;;;1.73;1.63;;;19.20;56.80;;;;;;5017986;28;20202;-84
2023/10/29 01:51:02;;;;;;;2.20;1.85;;;19.20;56.90;;;;;;5017047;28;20215;-83
2023/10/29 01:53:30;;;;;;;1.83;1.58;;;19.20;56.90;;;;;;5017531;28;20195;-84
2023/10/29 01:55:57;;;;;;;2.38;1.80;;;19.10;56.80;;;;;;5017463;28;20224;-84
2023/10/29 01:58:25;;;;;;;2.08;1.88;;;19.20;56.90;;;;;;5016272;28;20250;-84
2023/10/29 02:00:55;;;;;;;1.98;1.85;;;19.20;56.90;;;;;;5016558;28;20216;-84
2023/10/29 02:03:25;;;;;;;2.53;1.80;;;19.10;56.90;;;;;;5016221;28;20650;-84
2023/10/29 02:05:52;;;;;;;1.98;1.83;;;19.20;57.00;;;;;;5016379;28;20283;-84
2023/10/29 02:08:19;;;;;;;1.77;1.67;;;19.10;56.80;;;;;;5016044;28;20299;-84
2023/10/29 02:10:47;;;;;;;1.80;1.70;;;19.20;57.00;;;;;;5016269;28;20227;-84
2023/10/29 02:13:16;;;;;;;1.83;1.50;;;19.10;56.90;;;;;;5016428;28;20770;-84
2023/10/29 02:15:43;;;;;;;1.95;1.70;;;19.10;57.00;;;;;;5016346;28;20283;-84
2023/10/29 02:18:12;;;;;;;2.33;1.80;;;19.10;56.90;;;;;;5017497;28;20220;-84
2023/10/29 02:20:41;;;;;;;1.80;1.70;;;19.10;56.90;;;;;;5020363;28;20228;-84
2023/10/29 02:23:11;;;;;;;1.70;1.45;;;19.10;57.00;;;;;;5020567;28;20226;-84
2023/10/29 02:25:38;;;;;;;2.25;1.70;;;19.10;57.00;;;;;;5020603;28;20214;-83
2023/10/29 02:28:05;;;;;;;1.80;1.70;;;19.10;57.00;;;;;;5020386;28;20673;-84
2023/10/29 02:30:32;;;;;;;1.73;1.63;;;19.00;56.90;;;;;;5020073;28;20227;-84
2023/10/29 02:33:00;;;;;;;1.88;1.60;;;19.10;56.90;;;;;;5020080;28;20586;-84
2023/10/29 02:35:28;;;;;;;1.83;1.60;;;19.10;57.00;;;;;;5019976;28;20737;-84
2023/10/29 02:37:55;;;;;;;2.28;1.90;;;19.00;56.90;;;;;;5004136;28;20616;-84
2023/10/29 02:40:24;;;;;;;1.75;1.65;;;19.00;56.90;;;;;;5020300;28;20223;-84
2023/10/29 02:42:51;;;;;;;1.63;1.52;;;19.00;57.00;;;;;;5020085;28;20200;-84
2023/10/29 02:45:18;;;;;;;1.65;1.42;;;19.00;57.00;;;;;;5019958;28;20196;-84
2023/10/29 02:47:45;;;;;;;2.80;1.60;;;19.10;57.00;;;;;;5020566;28;20258;-84
2023/10/29 02:50:13;;;;;;;2.38;1.50;;;19.00;57.50;;;;;;5003803;28;20222;-84
2023/10/29 02:52:41;;;;;;;1.90;1.48;;;19.00;57.00;;;;;;5019795;28;20196;-84
2023/10/29 02:55:08;;;;;;;2.22;1.48;;;19.00;57.00;;;;;;5019883;28;20200;-84
2023/10/29 02:57:36;;;;;;;1.50;1.40;;;19.00;57.00;;;;;;5019889;28;20275;-84
2023/10/29 03:00:05;;;;;;;1.92;1.60;;;19.00;57.00;;;;;;5019736;28;20220;-84
2023/10/29 03:02:32;;;;;;;2.10;1.50;;;19.00;57.00;;;;;;5019909;28;20200;-84
2023/10/29 03:04:59;;;;;;;1.77;1.60;;;19.00;57.10;;;;;;5003697;28;20196;-84
2023/10/29 03:07:27;;;;;;;1.75;1.65;;;19.00;57.00;;;;;;5019924;28;20211;-84
2023/10/29 03:09:54;;;;;;;1.65;1.55;;;19.00;57.10;;;;;;5019475;28;20686;-84
2023/10/29 03:12:21;;;;;;;1.40;1.30;;;18.90;57.10;;;;;;5019622;28;20199;-84
2023/10/29 03:14:49;;;;;;;1.70;1.58;;;18.90;57.00;;;;;;5019475;28;20223;-84
2023/10/29 03:17:16;;;;;;;2.05;1.50;;;18.90;57.10;;;;;;5019099;28;20295;-84
2023/10/29 03:19:44;;;;;;;1.50;1.40;;;18.90;57.10;;;;;;5027850;28;20201;-84
2023/10/29 03:22:11;;;;;;;1.70;1.60;;;18.90;57.20;;;;;;5019269;28;20647;-84
2023/10/29 03:24:38;;;;;;;2.03;1.60;;;18.90;57.20;;;;;;5019381;28;20208;-84
2023/10/29 03:27:06;;;;;;;1.50;1.40;;;18.90;57.20;;;;;;5019071;28;20192;-84
2023/10/29 03:29:33;;;;;;;1.60;1.50;;;18.80;57.20;;;;;;5018474;28;20227;-84
2023/10/29 03:32:03;;;;;;;1.90;1.80;;;18.80;57.20;;;;;;5018892;28;20219;-84
2023/10/29 03:34:31;;;;;;;1.45;1.35;;;18.80;57.20;;;;;;5020150;28;20247;-84
2023/10/29 03:36:58;;;;;;;1.55;1.45;;;18.80;57.20;;;;;;5019216;28;20211;-84
2023/10/29 03:39:26;;;;;;;1.52;1.42;;;18.80;57.20;;;;;;5018587;28;20212;-84
2023/10/29 03:41:53;;;;;;;1.60;1.50;;;18.80;57.30;;;;;;5019051;28;20230;-84
2023/10/29 03:44:21;;;;;;;1.60;1.50;;;18.80;57.30;;;;;;5018527;28;20298;-84
2023/10/29 03:46:51;;;;;;;1.63;1.52;;;18.80;57.30;;;;;;5018681;28;20199;-84
2023/10/29 03:49:19;;;;;;;1.40;1.30;;;18.80;57.30;;;;;;5018319;28;20651;-84
2023/10/29 03:51:47;;;;;;;1.55;1.45;;;18.80;57.30;;;;;;5018306;28;20690;-84
2023/10/29 03:54:14;;;;;;;1.60;1.50;;;18.80;57.20;;;;;;5018402;28;20200;-84
2023/10/29 03:56:41;;;;;;;1.50;1.40;;;18.80;57.30;;;;;;5018300;28;20193;-84
2023/10/29 03:59:09;;;;;;;1.45;1.35;;;18.80;57.40;;;;;;5018352;28;20200;-84
2023/10/29 04:01:36;;;;;;;1.48;1.38;;;18.80;57.40;;;;;;5020352;28;20204;-84
2023/10/29 04:04:03;;;;;;;1.50;1.40;;;18.70;57.30;;;;;;5020098;28;20561;-84
2023/10/29 04:06:33;;;;;;;1.45;1.35;;;18.80;57.40;;;;;;5019918;28;20259;-84
2023/10/29 04:09:02;;;;;;;2.38;1.48;;;18.70;57.30;;;;;;5019559;28;20196;-84
2023/10/29 04:11:29;;;;;;;1.50;1.40;;;18.70;57.00;;;;;;5018312;28;20228;-84
2023/10/29 04:13:56;;;;;;;1.13;1.13;;;18.70;56.90;;;;;;5018733;28;20200;-84
2023/10/29 04:16:23;;;;;;;1.27;1.20;;;18.70;57.10;;;;;;5018252;28;20615;-84
2023/10/29 04:18:50;;;;;;;1.75;1.45;;;18.60;57.10;;;;;;5018468;28;20444;-84
2023/10/29 04:21:17;;;;;;;1.50;1.40;;;18.60;57.20;;;;;;5018354;28;20691;-84
2023/10/29 04:23:46;;;;;;;1.50;1.40;;;18.70;57.20;;;;;;5018312;28;20208;-84
2023/10/29 04:26:13;;;;;;;1.48;1.30;;;18.70;57.20;;;;;;5018667;28;20216;-84
2023/10/29 04:28:40;;;;;;;1.60;1.50;;;18.70;57.20;;;;;;5018591;28;20299;-84
2023/10/29 04:31:08;;;;;;;1.63;1.50;;;18.70;57.10;;;;;;5018368;28;20220;-84
2023/10/29 04:33:37;;;;;;;1.42;1.30;;;18.80;57.10;;;;;;5019158;28;20196;-84
2023/10/29 04:36:05;;;;;;;1.55;1.30;;;18.70;56.90;;;;;;5018355;28;20192;-84
2023/10/29 04:38:35;;;;;;;1.42;1.33;;;18.80;56.90;;;;;;5018480;28;20199;-84
2023/10/29 04:41:04;;;;;;;1.35;1.25;;;18.90;57.00;;;;;;5035397;28;20204;-84
2023/10/29 04:43:31;;;;;;;1.38;1.27;;;18.80;56.80;;;;;;5018222;28;20236;-84
2023/10/29 04:45:58;;;;;;;1.33;1.23;;;18.90;56.80;;;;;;5018376;28;20241;-84
2023/10/29 04:48:25;;;;;;;1.80;1.40;;;18.90;56.70;;;;;;5002268;28;20200;-84
2023/10/29 04:50:52;;;;;;;2.00;1.33;;;19.00;56.60;;;;;;5001745;28;20216;-84
2023/10/29 04:53:18;;;;;;;1.27;1.17;;;18.90;56.40;;;;;;5018374;28;20196;-84
2023/10/29 04:55:46;;;;;;;1.50;1.40;;;19.00;56.40;;;;;;5017804;28;20578;-84
2023/10/29 04:58:15;;;;;;;1.48;1.30;;;19.00;56.30;;;;;;5018946;28;20227;-84
2023/10/29 05:00:41;;;;;;;1.50;1.40;;;19.00;56.20;;;;;;5018789;28;20270;-84
2023/10/29 05:03:09;;;;;;;1.45;1.20;;;19.00;56.30;;;;;;5017313;28;20188;-84
2023/10/29 05:05:36;;;;;;;1.60;1.17;;;19.00;56.20;;;;;;5017056;28;20250;-84
2023/10/29 05:08:03;;;;;;;1.30;1.20;;;19.00;56.10;;;;;;5017471;28;20210;-84
2023/10/29 05:10:30;;;;;;;1.95;1.30;;;19.00;56.10;;;;;;5017487;28;20239;-84
2023/10/29 05:12:57;;;;;;;1.40;1.30;;;19.00;56.10;;;;;;5018298;28;20211;-84
2023/10/29 05:15:26;;;;;;;1.42;1.33;;;19.00;56.10;;;;;;5001394;28;20714;-84
2023/10/29 05:17:53;;;;;;;1.73;1.40;;;19.00;56.00;;;;;;5017620;28;20196;-84
2023/10/29 05:20:20;;;;;;;1.27;1.17;;;19.00;56.00;;;;;;5016785;28;20249;-84
2023/10/29 05:22:47;;;;;;;1.50;1.40;;;19.00;56.00;;;;;;5017969;28;20196;-84
2023/10/29 05:25:14;;;;;;;1.40;1.30;;;19.00;56.10;;;;;;5040422;23;20273;-83
2023/10/29 05:27:50;;;;;;;1.83;1.30;;;19.00;56.10;;;;;;5036377;28;20195;-83
2023/10/29 05:30:17;;;;;;;1.38;1.27;;;19.00;56.10;;;;;;5010697;28;20239;-83
2023/10/29 05:32:45;;;;;;;1.67;1.40;;;19.00;56.10;;;;;;5017022;28;20278;-83
2023/10/29 05:35:13;;;;;;;1.55;1.38;;;19.00;56.20;;;;;;5017701;28;20290;-83
2023/10/29 05:37:40;;;;;;;1.48;1.38;;;19.00;56.10;;;;;;5018085;28;20257;-83
2023/10/29 05:40:09;;;;;;;1.50;1.20;;;19.00;56.10;;;;;;5017734;28;20702;-84
2023/10/29 05:42:36;;;;;;;1.30;1.20;;;19.00;56.10;;;;;;5018790;28;20250;-84
2023/10/29 05:45:03;;;;;;;1.85;1.10;;;19.00;56.10;;;;;;5020911;28;20204;-84
2023/10/29 05:47:30;;;;;;;1.40;1.20;;;19.00;56.10;;;;;;5020774;28;20617;-84
2023/10/29 05:49:59;;;;;;;1.40;1.30;;;19.00;56.00;;;;;;5020662;28;20246;-84
2023/10/29 05:52:27;;;;;;;1.15;1.15;;;19.10;56.00;;;;;;5019868;28;20212;-84
2023/10/29 05:54:54;;;;;;;2.00;1.27;;;19.10;56.00;;;;;;5019564;28;20222;-84
2023/10/29 05:57:21;;;;;;;1.48;1.33;;;19.10;56.00;;;;;;5018905;28;20208;-84
2023/10/29 05:59:48;;;;;;;1.52;1.40;;;19.10;55.90;;;;;;5019415;28;20310;-84
2023/10/29 06:02:16;;;;;;;1.77;1.30;;;19.10;55.90;;;;;;5019032;28;20195;-84
2023/10/29 06:04:42;;;;;;;1.13;1.10;;;19.20;55.90;;;;;;5019313;28;20200;-83
2023/10/29 06:07:10;;;;;;;1.42;1.30;;;19.20;55.90;;;;;;5019322;28;20195;-83
2023/10/29 06:09:37;;;;;;;1.20;1.10;;;19.10;55.80;;;;;;5018106;28;20222;-84
2023/10/29 06:12:08;;;;;;;1.45;1.30;;;19.20;55.90;;;;;;5018225;28;20307;-84
2023/10/29 06:14:34;;;;;;;1.85;1.38;;;19.20;56.00;;;;;;5001574;28;20286;-83
2023/10/29 06:17:01;;;;;;;1.98;1.40;;;19.20;55.90;;;;;;5017568;28;20206;-83
2023/10/29 06:19:28;;;;;;;1.00;1.00;;;19.20;55.90;;;;;;5017050;28;20660;-83
2023/10/29 06:21:55;;;;;;;1.30;1.20;;;19.20;55.90;;;;;;5016716;28;20191;-83
2023/10/29 06:24:24;;;;;;;1.30;1.20;;;19.20;55.80;;;;;;5000837;28;20295;-83
2023/10/29 06:26:51;;;;;;;1.40;1.30;;;19.20;55.70;;;;;;5017822;28;20192;-83
2023/10/29 06:29:19;;;;;;;1.20;1.10;;;19.20;55.70;;;;;;5017266;28;20196;-83
2023/10/29 06:31:46;;;;;;;1.30;1.20;;;19.20;55.70;;;;;;5016798;28;20222;-83
2023/10/29 06:34:13;;;;;;;1.30;1.20;;;19.20;55.70;;;;;;5016842;28;20258;-83
2023/10/29 06:36:40;;;;;;;2.45;1.38;;;19.20;55.70;;;;;;5016898;28;20254;-83
2023/10/29 06:39:07;;;;;;;1.80;1.40;;;19.30;55.70;;;;;;5017201;28;20200;-84
2023/10/29 06:41:35;;;;;;;2.05;1.55;;;19.30;55.60;;;;;;5017268;28;20192;-83
2023/10/29 06:44:02;;;;;;;1.48;1.38;;;19.30;55.70;;;;;;5016949;28;20200;-83
2023/10/29 06:46:29;;;;;;;1.42;1.33;;;19.30;55.60;;;;;;5016988;28;20196;-83
2023/10/29 06:48:57;;;;;;;1.33;1.23;;;19.30;55.60;;;;;;5016582;28;20651;-83
2023/10/29 06:51:24;;;;;;;1.52;1.42;;;19.30;55.70;;;;;;5016036;28;20220;-83
2023/10/29 06:53:51;;;;;;;1.35;1.25;;;19.30;55.60;;;;;;5016453;28;20196;-83
2023/10/29 06:56:19;;;;;;;1.67;1.40;;;19.30;55.60;;;;;;5017583;28;20219;-83
2023/10/29 06:58:47;;;;;;;1.67;1.35;;;19.30;55.60;;;;;;5016516;28;20204;-83
2023/10/29 07:01:15;;;;;;;1.45;1.20;;;19.40;55.50;;;;;;5015988;28;20588;-84
2023/10/29 07:03:43;;;;;;;1.55;1.45;;;19.30;55.60;;;;;;5000467;28;20542;-84
2023/10/29 07:06:11;;;;;;;1.35;1.25;;;19.40;55.60;;;;;;5019803;28;20295;-84
2023/10/29 07:08:39;;;;;;;1.40;1.30;;;19.40;55.60;;;;;;5020317;28;20722;-84
2023/10/29 07:11:05;;;;;;;1.70;1.40;;;19.40;55.50;;;;;;5019262;28;20212;-84
2023/10/29 07:13:34;;;;;;;1.50;1.40;;;19.40;55.50;;;;;;5019544;28;20691;-84
2023/10/29 07:16:04;;;;;;;1.45;1.35;;;19.40;55.50;;;;;;5019842;28;20207;-84
2023/10/29 07:18:31;;;;;;;1.35;1.25;;;19.40;55.50;;;;;;5019147;28;20200;-84
2023/10/29 07:20:59;;;;;;;1.10;1.05;;;19.40;55.50;;;;;;5003125;28;20227;-84
2023/10/29 07:23:26;;;;;;;1.60;1.23;;;19.40;55.50;;;;;;5002891;28;20626;-84
2023/10/29 07:25:53;;;;;;;2.38;1.42;;;19.40;55.50;;;;;;5019693;28;20258;-83
2023/10/29 07:28:20;;;;;;;1.33;1.23;;;19.40;55.50;;;;;;5019841;28;20200;-83
2023/10/29 07:30:48;;;;;;;1.20;1.10;;;19.40;55.50;;;;;;5019285;28;20597;-83
2023/10/29 07:33:17;;;;;;;1.40;1.30;;;19.40;55.50;;;;;;5020268;28;20227;-83
2023/10/29 07:35:43;;;;;;;1.88;1.48;;;19.40;55.50;;;;;;5018940;28;20207;-84
2023/10/29 07:38:11;;;;;;;1.30;1.20;;;19.40;55.30;;;;;;5020288;28;20659;-83
2023/10/29 07:40:38;;;;;;;1.27;1.20;;;19.50;55.50;;;;;;5019450;28;20690;-83
2023/10/29 07:43:05;;;;;;;1.77;1.30;;;19.40;55.50;;;;;;5019254;28;20223;-83
2023/10/29 07:45:33;;;;;;;1.20;1.10;;;19.50;55.50;;;;;;5019535;28;20207;-83
2023/10/29 07:48:00;;;;;;;1.25;1.15;;;19.50;55.50;;;;;;5018854;28;20245;-83
2023/10/29 07:50:28;;;;;;;1.30;1.20;;;19.50;55.50;;;;;;5019347;28;20303;-83
2023/10/29 07:52:56;;;;;;;1.40;1.30;;;19.50;55.50;;;;;;5018963;28;20211;-83
2023/10/29 07:55:23;;;;;;;1.27;1.20;;;19.50;55.40;;;;;;5004128;28;20323;-83
2023/10/29 07:57:50;;;;;;;2.30;1.60;;;19.50;55.50;;;;;;5020565;28;20572;-83
2023/10/29 08:00:18;;;;;;;1.50;1.40;;;19.50;55.40;;;;;;5003645;28;20230;-83
2023/10/29 08:02:45;;;;;;;1.55;1.45;;;19.50;55.30;;;;;;5018958;28;20238;-83
2023/10/29 08:05:14;;;;;;;1.92;1.45;;;19.60;55.40;;;;;;5003422;28;20606;-83
2023/10/29 08:07:43;;;;;;;1.40;1.30;;;19.60;55.40;;;;;;5019002;28;20200;-83
2023/10/29 08:10:11;;;;;;;1.92;1.40;;;19.60;55.30;;;;;;5019097;28;20208;-83
2023/10/29 08:12:37;;;;;;;1.60;1.50;;;19.60;55.40;;;;;;5019088;28;20713;-83
2023/10/29 08:15:05;;;;;;;1.52;1.42;;;19.60;55.40;;;;;;5019038;28;20227;-83
2023/10/29 08:17:32;;;;;;;1.73;1.45;;;19.60;55.40;;;;;;5019046;28;20698;-83
2023/10/29 08:19:59;;;;;;;1.40;1.30;;;19.60;55.30;;;;;;5020150;28;20211;-83
2023/10/29 08:22:27;;;;;;;1.60;1.50;;;19.60;55.30;;;;;;5020022;28;20543;-84
2023/10/29 08:24:56;;;;;;;1.95;1.55;;;19.60;55.10;;;;;;5003664;28;20283;-84
2023/10/29 08:27:23;;;;;;;1.85;1.48;;;19.70;55.10;;;;;;5019970;28;20283;-84
2023/10/29 08:29:50;;;;;;;1.35;1.25;;;19.70;55.00;;;;;;5019752;28;20243;-84
2023/10/29 08:32:18;;;;;;;1.60;1.50;;;19.80;55.00;;;;;;5019956;28;20262;-84
2023/10/29 08:34:45;;;;;;;1.80;1.60;;;19.70;54.80;;;;;;5019308;28;20204;-84
2023/10/29 08:37:12;;;;;;;1.70;1.60;;;19.80;54.80;;;;;;5019883;28;20567;-84
2023/10/29 08:39:39;;;;;;;1.52;1.42;;;19.80;54.60;;;;;;5019601;28;20216;-84
2023/10/29 08:42:08;;;;;;;1.60;1.50;;;19.80;54.60;;;;;;5019350;28;20192;-84
2023/10/29 08:44:35;;;;;;;1.63;1.52;;;19.80;54.70;;;;;;5019260;28;20249;-84
2023/10/29 08:47:02;;;;;;;2.42;1.50;;;19.90;54.80;;;;;;5019811;28;20570;-84
2023/10/29 08:49:29;;;;;;;1.85;1.70;;;19.90;54.80;;;;;;5019857;28;20231;-84
2023/10/29 08:51:56;;;;;;;3.22;1.73;;;19.90;54.80;;;;;;5001507;28;20204;-84
2023/10/29 08:54:24;;;;;;;1.45;1.35;;;19.90;54.70;;;;;;5017922;28;20727;-84
2023/10/29 08:56:51;;;;;;;1.77;1.67;;;20.00;54.60;;;;;;5018336;28;20292;-84
2023/10/29 08:59:19;;;;;;;2.00;1.75;;;20.00;54.60;;;;;;5018433;28;20246;-83
2023/10/29 09:01:48;;;;;;;2.13;1.92;;;20.10;54.60;;;;;;5019146;28;20250;-84
2023/10/29 09:04:16;;;;;;;2.25;2.00;;;20.10;54.70;;;;;;5001986;28;20663;-84
2023/10/29 09:06:43;;;;;;;2.13;1.92;;;20.10;54.60;;;;;;5018369;28;20203;-84
2023/10/29 09:09:11;;;;;;;1.70;1.60;;;20.10;54.40;;;;;;5035346;28;20188;-84
2023/10/29 09:11:39;;;;;;;1.67;1.58;;;20.20;54.30;;;;;;5017547;28;20627;-84
2023/10/29 09:14:10;;;;;;;1.50;1.40;;;20.20;54.20;;;;;;5020950;28;20216;-84
2023/10/29 09:16:39;;;;;;;1.63;1.52;;;20.20;54.20;;;;;;5019200;28;20199;-84
2023/10/29 09:19:06;;;;;;;1.48;1.38;;;20.20;54.10;;;;;;5017810;28;20233;-84
2023/10/29 09:21:32;;;;;;;1.83;1.73;;;20.20;54.10;;;;;;5018804;28;20666;-84
2023/10/29 09:24:00;;;;;;;2.70;2.17;;;20.20;54.20;;;;;;5019004;28;20282;-84
2023/10/29 09:26:26;;;;;;;1.95;1.70;;;20.30;54.20;;;;;;5018525;28;20569;-84
2023/10/29 09:28:53;;;;;;;2.20;1.63;;;20.30;54.20;;;;;;5018777;28;20254;-84
2023/10/29 09:31:21;;;;;;;1.65;1.50;;;20.30;54.10;;;;;;5002930;28;20593;-84
2023/10/29 09:33:49;;;;;;;1.50;1.40;;;20.40;54.10;;;;;;5018366;28;20220;-84
2023/10/29 09:36:18;;;;;;;1.98;1.77;;;20.40;53.90;;;;;;5018274;28;20201;-84
2023/10/29 09:38:45;;;;;;;1.55;1.45;;;20.40;53.90;;;;;;5018581;28;20250;-84
2023/10/29 09:41:13;;;;;;;1.60;1.50;;;20.40;53.90;;;;;;5018327;28;20239;-83
2023/10/29 09:43:40;;;;;;;1.80;1.65;;;20.40;53.90;;;;;;5018569;28;20212;-84
2023/10/29 09:46:07;;;;;;;2.20;1.90;;;20.40;53.80;;;;;;5017931;28;20250;-84
2023/10/29 09:48:34;;;;;;;2.42;1.60;;;20.40;53.70;;;;;;5017570;28;20231;-84
2023/10/29 09:51:03;;;;;;;1.50;1.40;;;20.50;53.80;;;;;;5016890;28;20222;-84
2023/10/29 09:53:31;;;;;;;1.38;1.27;;;20.40;53.60;;;;;;5017246;28;20216;-83
2023/10/29 09:55:59;;;;;;;1.40;1.30;;;20.50;53.70;;;;;;4986126;28;20203;-84
2023/10/29 09:58:27;;;;;;;3.15;1.77;;;20.50;53.70;;;;;;5017196;28;20651;-84
2023/10/29 10:00:56;;;;;;;1.42;1.33;;;20.50;53.60;;;;;;5030688;28;20223;-83
2023/10/29 10:03:24;;;;;;;1.50;1.40;;;20.50;53.50;;;;;;5041660;28;20168;-83
2023/10/29 10:05:52;;;;;;;1.30;1.20;;;20.50;53.40;;;;;;5041610;28;20275;-83
2023/10/29 10:08:25;;;;;;;1.40;1.30;;;20.50;53.30;;;;;;5027588;28;20540;-83
2023/10/29 10:10:52;;;;;;;1.73;1.50;;;20.50;53.20;;;;;;5018683;28;20223;-83
2023/10/29 10:13:22;;;;;;;1.30;1.20;;;20.60;53.20;;;;;;5023646;28;20219;-83
2023/10/29 10:15:51;;;;;;;1.40;1.30;;;20.60;53.10;;;;;;5022532;28;20578;-84
2023/10/29 10:18:18;;;;;;;1.83;1.58;;;20.60;52.90;;;;;;5007279;28;20223;-83
2023/10/29 10:20:45;;;;;;;1.63;1.50;;;20.70;52.90;;;;;;5022788;28;20223;-84
2023/10/29 10:23:13;;;;;;;1.60;1.50;;;20.70;52.90;;;;;;5022135;28;20192;-84
2023/10/29 10:25:41;;;;;;;1.40;1.30;;;20.60;52.90;;;;;;5022897;28;20648;-84
2023/10/29 10:28:09;;;;;;;1.48;1.38;;;20.60;53.00;;;;;;5022341;28;20196;-84
2023/10/29 10:30:37;;;;;;;1.50;1.40;;;20.70;53.00;;;;;;5021869;28;20242;-84
2023/10/29 10:33:12;;;;;;;2.20;1.30;;;20.70;53.00;;;;;;5021532;28;20239;-84
2023/10/29 10:35:40;;;;;;;1.38;1.27;;;20.70;53.10;;;;;;5005690;28;20199;-84
2023/10/29 10:38:07;;;;;;;1.88;1.60;;;20.70;53.20;;;;;;5021041;28;20196;-84
2023/10/29 10:40:34;;;;;;;1.60;1.50;;;20.70;53.20;;;;;;5020073;28;20219;-84
2023/10/29 10:43:03;;;;;;;1.63;1.52;;;20.80;53.20;;;;;;5004745;28;20196;-83
2023/10/29 10:45:30;;;;;;;1.67;1.50;;;20.70;53.10;;;;;;5021777;28;20242;-84
2023/10/29 10:47:57;;;;;;;1.50;1.40;;;20.70;53.10;;;;;;5022934;28;20557;-84
2023/10/29 10:50:25;;;;;;;1.65;1.55;;;20.70;53.20;;;;;;5021454;28;20216;-84
2023/10/29 10:52:52;;;;;;;1.48;1.40;;;20.80;53.20;;;;;;5022688;28;20220;-84
2023/10/29 10:55:19;;;;;;;2.17;1.38;;;20.80;53.10;;;;;;5024664;28;20204;-84
2023/10/29 10:57:47;;;;;;;1.95;1.58;;;20.80;53.10;;;;;;5024497;28;20224;-84
2023/10/29 11:00:16;;;;;;;1.50;1.40;;;20.80;53.10;;;;;;5024847;28;20216;-84
2023/10/29 11:02:43;;;;;;;1.42;1.33;;;20.80;53.10;;;;;;5024768;28;20207;-84
2023/10/29 11:05:11;;;;;;;1.40;1.30;;;20.80;53.10;;;;;;5024428;28;20573;-84
2023/10/29 11:07:38;;;;;;;1.50;1.40;;;20.70;53.10;;;;;;5024395;28;20200;-84
2023/10/29 11:10:08;;;;;;;1.60;1.50;;;20.70;53.10;;;;;;5024553;28;20263;-84
2023/10/29 11:12:35;;;;;;;1.73;1.40;;;20.80;53.20;;;;;;5007868;28;20218;-84
2023/10/29 11:15:17;;;;;;;1.75;1.60;;;20.80;53.30;;;;;;5024836;28;20200;-84
2023/10/29 11:17:57;;;;;;;1.60;1.50;;;20.80;53.40;;;;;;5024174;28;20650;-84
2023/10/29 11:20:55;;;;;;;1.60;1.50;;;20.80;53.40;;;;;;5023631;28;20227;-84
2023/10/29 11:23:27;;;;;;;1.73;1.50;;;20.80;53.40;;;;;;5022989;28;20196;-84
2023/10/29 11:26:23;;;;;;;1.70;1.60;;;20.80;53.40;;;;;;5022582;28;20228;-83
2023/10/29 11:28:51;;;;;;;1.20;1.10;;;20.70;53.40;;;;;;5021286;28;20203;-84
2023/10/29 11:31:20;;;;;;;1.90;1.40;;;20.80;53.40;;;;;;5003365;28;20216;-84
2023/10/29 11:33:47;;;;;;;1.48;1.38;;;20.90;53.40;;;;;;5020260;28;20798;-83
2023/10/29 11:36:32;;;;;;;1.50;1.40;;;20.90;53.30;;;;;;5003795;28;20359;-84
2023/10/29 11:39:29;;;;;;;1.45;1.35;;;20.90;53.10;;;;;;5020098;28;20208;-84
2023/10/29 11:41:57;;;;;;;1.45;1.35;;;20.90;53.10;;;;;;5020355;28;20223;-84
2023/10/29 11:44:24;;;;;;;1.52;1.42;;;20.90;53.00;;;;;;5020927;28;20200;-84
2023/10/29 11:47:06;;;;;;;2.03;1.40;;;21.10;53.10;;;;;;5021174;28;20204;-84
2023/10/29 11:50:08;;;;;;;1.52;1.20;;;21.00;52.90;;;;;;5020558;28;20226;-84
2023/10/29 11:52:42;;;;;;;1.50;1.40;;;21.10;52.90;;;;;;5021024;28;20191;-83
2023/10/29 11:55:10;;;;;;;1.23;1.13;;;21.10;52.80;;;;;;5020765;28;20371;-84
2023/10/29 11:57:37;;;;;;;1.77;1.50;;;21.10;52.70;;;;;;5022498;28;20200;-84
2023/10/29 12:00:08;;;;;;;2.83;1.45;;;21.20;52.60;;;;;;5020222;28;20219;-84
2023/10/29 12:02:36;;;;;;;1.38;1.27;;;21.20;52.70;;;;;;5021821;28;20204;-84
2023/10/29 12:05:09;;;;;;;1.50;1.20;;;21.20;52.60;;;;;;5019850;28;20255;-84
2023/10/29 12:07:36;;;;;;;1.55;1.45;;;21.30;52.70;;;;;;5019916;28;20200;-83
2023/10/29 12:10:04;;;;;;;1.80;1.63;;;21.30;52.60;;;;;;5019491;28;20222;-84
2023/10/29 12:12:32;;;;;;;1.58;1.48;;;21.20;52.30;;;;;;5019273;28;20243;-84
2023/10/29 12:14:58;;;;;;;1.52;1.42;;;21.30;52.30;;;;;;5019285;28;20302;-84
2023/10/29 12:17:27;;;;;;;1.50;1.40;;;21.30;52.10;;;;;;5019130;28;20196;-84
2023/10/29 12:19:55;;;;;;;1.10;1.10;;;21.30;52.00;;;;;;5018824;28;20222;-84
2023/10/29 12:22:23;;;;;;;1.48;1.38;;;21.40;52.10;;;;;;5018587;28;20234;-84
2023/10/29 12:24:52;;;;;;;1.10;1.10;;;21.40;52.10;;;;;;5018630;28;20617;-84
2023/10/29 12:27:21;;;;;;;1.40;1.30;;;21.40;52.10;;;;;;5019563;28;20238;-84
2023/10/29 12:29:48;;;;;;;1.40;1.30;;;21.40;52.10;;;;;;5019812;28;20223;-84
2023/10/29 12:32:17;;;;;;;1.40;1.27;;;21.40;52.00;;;;;;5020629;28;20283;-84
2023/10/29 12:34:51;;;;;;;1.42;1.33;;;21.40;52.00;;;;;;5020487;28;20231;-84
2023/10/29 12:37:23;;;;;;;1.38;1.27;;;21.40;51.90;;;;;;4987627;28;20227;-84
2023/10/29 12:39:51;;;;;;;1.42;1.33;;;21.50;52.00;;;;;;5019738;28;20224;-84
2023/10/29 12:42:18;;;;;;;1.40;1.30;;;21.50;51.90;;;;;;5019959;28;20245;-84
2023/10/29 12:44:55;;;;;;;1.20;1.20;;;21.50;51.90;;;;;;5020352;28;20207;-84
2023/10/29 12:47:22;;;;;;;1.60;1.48;;;21.50;51.90;;;;;;5018835;28;20196;-84
2023/10/29 12:49:59;;;;;;;1.60;1.50;;;21.50;52.00;;;;;;5002736;28;20302;-83
2023/10/29 12:52:28;;;;;;;1.60;1.50;;;21.50;52.10;;;;;;5019045;28;20777;-84